createdAt,value
2023-05-24T00:00:01.054Z,57.62
2023-05-24T00:02:28.927Z,58.08
2023-05-24T00:04:56.289Z,57.91
2023-05-24T00:07:23.403Z,55.57
2023-05-24T00:09:50.597Z,55.49
2023-05-24T00:12:18.015Z,55.29
2023-05-24T00:14:45.593Z,55.60
2023-05-24T00:17:12.942Z,55.55
2023-05-24T00:19:40.417Z,55.80
2023-05-24T00:22:07.625Z,57.03
2023-05-24T00:24:34.959Z,56.99
2023-05-24T00:27:02.274Z,57.44
2023-05-24T00:29:31.554Z,56.77
2023-05-24T00:32:00.449Z,55.71
2023-05-24T00:34:27.821Z,54.21
2023-05-24T00:36:54.863Z,54.47
2023-05-24T00:39:21.936Z,55.09
2023-05-24T00:41:49.302Z,55.19
2023-05-24T00:44:16.465Z,55.33
2023-05-24T00:46:43.612Z,56.12
2023-05-24T00:49:10.734Z,56.40
2023-05-24T00:51:41.049Z,55.55
2023-05-24T00:54:08.232Z,55.17
2023-05-24T00:56:35.798Z,57.04
2023-05-24T00:59:03.529Z,57.38
2023-05-24T01:01:32.131Z,58.15
2023-05-24T01:03:59.729Z,57.97
2023-05-24T01:06:28.261Z,56.45
2023-05-24T01:09:24.160Z,55.76
2023-05-24T01:12:15.819Z,56.21
2023-05-24T01:14:55.372Z,56.38
2023-05-24T01:17:36.592Z,56.46
2023-05-24T01:20:07.098Z,57.24
2023-05-24T01:23:11.981Z,57.74
2023-05-24T01:26:09.619Z,58.19
2023-05-24T01:28:36.843Z,58.74
2023-05-24T01:31:04.099Z,59.25
2023-05-24T01:33:31.303Z,59.05
2023-05-24T01:35:58.400Z,57.04
2023-05-24T01:38:25.554Z,56.55
2023-05-24T01:40:53.647Z,55.65
2023-05-24T01:43:43.747Z,55.90
2023-05-24T01:46:28.651Z,57.65
2023-05-24T01:49:27.415Z,58.06
2023-05-24T01:52:05.321Z,58.89
2023-05-24T01:54:34.151Z,59.10
2023-05-24T01:57:01.201Z,59.82
2023-05-24T01:59:28.990Z,59.24
2023-05-24T02:01:56.573Z,57.35
2023-05-24T02:04:23.749Z,57.56
2023-05-24T02:06:51.098Z,57.58
2023-05-24T02:09:18.452Z,57.88
2023-05-24T02:11:45.780Z,58.15
2023-05-24T02:14:13.500Z,58.50
2023-05-24T02:16:47.026Z,59.09
2023-05-24T02:19:14.454Z,59.91
2023-05-24T02:21:41.503Z,60.44
2023-05-24T02:24:15.123Z,60.09
2023-05-24T02:26:42.482Z,58.60
2023-05-24T02:29:09.653Z,57.82
2023-05-24T02:31:37.187Z,58.01
2023-05-24T02:34:04.280Z,57.83
2023-05-24T02:36:34.665Z,58.15
2023-05-24T02:39:02.348Z,57.78
2023-05-24T02:41:29.910Z,59.13
2023-05-24T02:43:57.100Z,59.92
2023-05-24T02:46:24.426Z,59.34
2023-05-24T02:48:51.757Z,58.19
2023-05-24T02:51:18.935Z,57.43
2023-05-24T02:53:46.179Z,57.53
2023-05-24T02:56:14.144Z,57.76
2023-05-24T02:58:41.813Z,57.95
2023-05-24T03:01:09.014Z,58.65
2023-05-24T03:03:36.921Z,59.12
2023-05-24T03:06:07.147Z,59.50
2023-05-24T03:08:34.903Z,60.24
2023-05-24T03:11:02.245Z,60.02
2023-05-24T03:13:29.571Z,58.04
2023-05-24T03:15:56.947Z,57.24
2023-05-24T03:18:24.141Z,57.16
2023-05-24T03:20:52.115Z,57.45
2023-05-24T03:23:21.200Z,58.11
2023-05-24T03:25:49.271Z,58.82
2023-05-24T03:28:16.285Z,59.27
2023-05-24T03:30:44.043Z,59.53
2023-05-24T03:33:11.520Z,59.06
2023-05-24T03:35:39.014Z,57.03
2023-05-24T03:38:06.497Z,55.91
2023-05-24T03:40:34.932Z,55.75
2023-05-24T03:43:05.134Z,57.26
2023-05-24T03:45:50.472Z,57.09
2023-05-24T03:48:21.102Z,57.45
2023-05-24T03:50:48.451Z,56.87
2023-05-24T03:53:16.282Z,57.07
2023-05-24T03:55:43.407Z,58.08
2023-05-24T03:58:12.754Z,58.88
2023-05-24T04:00:40.157Z,58.98
2023-05-24T04:03:07.587Z,56.76
2023-05-24T04:05:35.496Z,56.49
2023-05-24T04:08:03.095Z,56.39
2023-05-24T04:10:30.515Z,56.92
2023-05-24T04:12:57.891Z,57.21
2023-05-24T04:15:25.039Z,57.45
2023-05-24T04:17:55.353Z,57.63
2023-05-24T04:20:27.814Z,58.13
2023-05-24T04:22:56.477Z,58.66
2023-05-24T04:25:24.082Z,58.41
2023-05-24T04:27:51.311Z,56.24
2023-05-24T04:30:18.854Z,54.81
2023-05-24T04:32:46.867Z,54.98
2023-05-24T04:35:14.350Z,54.42
2023-05-24T04:37:41.535Z,53.42
2023-05-24T04:40:09.426Z,53.98
2023-05-24T04:42:36.650Z,54.30
2023-05-24T04:45:04.018Z,54.06
2023-05-24T04:47:31.653Z,54.62
2023-05-24T04:49:58.856Z,54.31
2023-05-24T04:52:26.150Z,53.87
2023-05-24T04:54:55.327Z,53.60
2023-05-24T04:57:22.828Z,53.47
2023-05-24T04:59:49.917Z,53.43
2023-05-24T05:02:20.698Z,53.47
2023-05-24T05:04:47.877Z,53.12
2023-05-24T05:07:15.160Z,52.96
2023-05-24T05:09:42.294Z,52.09
2023-05-24T05:12:09.378Z,51.85
2023-05-24T05:14:36.883Z,49.94
2023-05-24T05:17:04.113Z,49.24
2023-05-24T05:19:31.411Z,48.09
2023-05-24T05:21:58.738Z,47.97
2023-05-24T05:24:25.860Z,47.51
2023-05-24T05:26:53.152Z,46.01
2023-05-24T05:29:21.259Z,45.01
2023-05-24T05:31:50.116Z,45.48
2023-05-24T05:34:17.370Z,44.90
2023-05-24T05:36:44.420Z,45.25
2023-05-24T05:39:11.537Z,44.85
2023-05-24T05:41:39.299Z,44.30
2023-05-24T05:44:06.835Z,42.75
2023-05-24T05:46:34.729Z,42.33
2023-05-24T05:49:01.926Z,43.77
2023-05-24T05:51:29.144Z,43.28
2023-05-24T05:53:56.472Z,41.14
2023-05-24T05:56:23.633Z,43.17
2023-05-24T05:58:50.724Z,39.60
2023-05-24T06:01:17.850Z,40.97
2023-05-24T06:03:45.386Z,39.28
2023-05-24T06:06:12.742Z,38.46
2023-05-24T06:08:41.132Z,39.64
2023-05-24T06:11:08.197Z,39.49
2023-05-24T06:13:36.242Z,40.28
2023-05-24T06:16:03.516Z,38.36
2023-05-24T06:18:32.716Z,36.59
2023-05-24T06:20:59.981Z,35.20
2023-05-24T06:23:27.183Z,36.35
2023-05-24T06:25:54.318Z,36.21
2023-05-24T06:28:22.894Z,36.87
2023-05-24T06:30:49.910Z,33.46
2023-05-24T06:33:17.540Z,35.27
2023-05-24T06:35:44.653Z,34.92
2023-05-24T06:38:12.345Z,33.67
2023-05-24T06:40:40.338Z,36.03
2023-05-24T06:43:08.173Z,34.27
2023-05-24T06:45:35.840Z,33.75
2023-05-24T06:48:03.280Z,34.52
2023-05-24T06:50:30.659Z,29.85
2023-05-24T06:52:58.064Z,29.31
2023-05-24T06:55:25.164Z,32.18
2023-05-24T06:57:52.379Z,29.23
2023-05-24T07:00:20.506Z,30.21
2023-05-24T07:02:47.703Z,30.70
2023-05-24T07:05:15.441Z,32.57
2023-05-24T07:07:42.671Z,30.05
2023-05-24T07:10:13.063Z,28.12
2023-05-24T07:12:40.551Z,29.87
2023-05-24T07:15:08.856Z,27.90
2023-05-24T07:17:36.656Z,29.89
2023-05-24T07:20:07.115Z,28.45
2023-05-24T07:22:34.466Z,28.62
2023-05-24T07:25:01.702Z,29.03
2023-05-24T07:27:29.864Z,27.15
2023-05-24T07:29:57.295Z,28.08
2023-05-24T07:32:24.569Z,30.16
2023-05-24T07:34:52.167Z,28.53
2023-05-24T07:37:19.533Z,28.80
2023-05-24T07:39:46.660Z,27.27
2023-05-24T07:42:14.016Z,27.35
2023-05-24T07:44:41.474Z,28.98
2023-05-24T07:47:08.823Z,29.16
2023-05-24T07:49:36.302Z,29.20
2023-05-24T07:52:04.496Z,28.93
2023-05-24T07:54:31.918Z,27.53
2023-05-24T07:56:59.060Z,29.19
2023-05-24T07:59:26.824Z,28.97
2023-05-24T08:01:54.046Z,29.27
2023-05-24T08:04:21.876Z,27.77
2023-05-24T08:06:49.148Z,25.81
2023-05-24T08:09:16.767Z,27.26
2023-05-24T08:11:43.837Z,27.82
2023-05-24T08:14:11.055Z,26.27
2023-05-24T08:16:38.716Z,25.65
2023-05-24T08:19:06.881Z,25.20
2023-05-24T08:21:34.042Z,25.53
2023-05-24T08:24:01.251Z,26.16
2023-05-24T08:26:28.307Z,27.01
2023-05-24T08:28:56.216Z,27.95
2023-05-24T08:31:23.355Z,26.86
2023-05-24T08:33:51.513Z,25.09
2023-05-24T08:36:18.894Z,25.13
2023-05-24T08:38:46.061Z,26.72
2023-05-24T08:41:13.205Z,26.68
2023-05-24T08:43:40.536Z,27.58
2023-05-24T08:46:07.785Z,27.09
2023-05-24T08:48:47.381Z,26.75
2023-05-24T08:51:16.446Z,26.77
2023-05-24T08:53:48.656Z,27.17
2023-05-24T08:56:19.228Z,26.63
2023-05-24T08:58:47.390Z,24.06
2023-05-24T09:01:15.412Z,25.37
2023-05-24T09:03:42.461Z,25.53
2023-05-24T09:06:10.788Z,27.38
2023-05-24T09:08:38.579Z,24.08
2023-05-24T09:11:05.696Z,25.69
2023-05-24T09:13:32.915Z,26.47
2023-05-24T09:16:00.241Z,25.03
2023-05-24T09:18:27.750Z,23.48
2023-05-24T09:20:57.224Z,24.61
2023-05-24T09:23:26.461Z,23.85
2023-05-24T09:25:53.462Z,25.74
2023-05-24T09:28:21.948Z,24.24
2023-05-24T09:30:58.748Z,26.32
2023-05-24T09:33:32.598Z,24.75
2023-05-24T09:36:00.555Z,24.83
2023-05-24T09:38:28.240Z,24.10
2023-05-24T09:41:13.500Z,25.26
2023-05-24T09:43:49.940Z,25.60
2023-05-24T09:46:23.595Z,26.86
2023-05-24T09:48:58.066Z,23.62
2023-05-24T09:51:25.403Z,23.30
2023-05-24T09:53:53.096Z,25.59
2023-05-24T09:56:20.482Z,24.03
2023-05-24T09:58:47.711Z,24.66
2023-05-24T10:01:16.663Z,24.59
2023-05-24T10:03:57.648Z,24.28
2023-05-24T10:08:40.913Z,23.01
2023-05-24T10:11:08.354Z,23.67
2023-05-24T10:13:36.540Z,24.24
2023-05-24T10:16:04.714Z,23.86
2023-05-24T10:18:32.521Z,22.52
2023-05-24T10:21:01.098Z,23.53
2023-05-24T10:23:32.725Z,22.80
2023-05-24T10:26:07.796Z,22.64
2023-05-24T10:28:53.596Z,23.51
2023-05-24T10:31:34.670Z,22.54
2023-05-24T10:34:07.928Z,22.39
2023-05-24T10:36:37.156Z,23.19
2023-05-24T10:39:04.468Z,21.25
2023-05-24T10:41:39.242Z,21.80
2023-05-24T10:44:10.380Z,21.28
2023-05-24T10:46:38.535Z,20.25
2023-05-24T10:49:08.108Z,21.18
2023-05-24T10:51:38.303Z,20.32
2023-05-24T10:54:13.512Z,20.31
2023-05-24T10:56:50.841Z,19.17
2023-05-24T10:59:37.471Z,20.19
2023-05-24T11:02:08.856Z,19.50
2023-05-24T11:04:43.624Z,21.62
2023-05-24T11:07:11.673Z,20.91
2023-05-24T11:09:46.908Z,20.98
2023-05-24T11:12:18.563Z,20.32
2023-05-24T11:14:52.760Z,20.78
2023-05-24T11:17:23.481Z,19.84
2023-05-24T11:19:52.839Z,19.03
2023-05-24T11:22:22.022Z,19.82
2023-05-24T11:24:49.108Z,18.13
2023-05-24T11:27:16.653Z,17.98
2023-05-24T11:29:45.190Z,19.77
2023-05-24T11:32:16.786Z,20.56
2023-05-24T11:34:47.808Z,21.69
2023-05-24T11:37:17.706Z,20.46
2023-05-24T11:39:49.881Z,19.21
2023-05-24T11:42:17.050Z,18.78
2023-05-24T11:44:44.131Z,18.88
2023-05-24T11:47:12.093Z,18.69
2023-05-24T11:49:39.290Z,18.41
2023-05-24T11:52:07.529Z,16.19
2023-05-24T11:54:40.680Z,17.63
2023-05-24T11:57:07.769Z,18.20
2023-05-24T11:59:38.051Z,18.62
2023-05-24T12:02:08.122Z,18.90
2023-05-24T12:04:35.542Z,18.25
2023-05-24T12:07:03.274Z,18.62
2023-05-24T12:09:30.825Z,17.84
2023-05-24T12:11:58.797Z,17.94
2023-05-24T12:14:33.157Z,17.86
2023-05-24T12:17:01.188Z,19.51
2023-05-24T12:19:36.866Z,18.86
2023-05-24T12:22:06.020Z,20.29
2023-05-24T12:24:34.561Z,20.85
2023-05-24T12:27:03.409Z,19.99
2023-05-24T12:29:38.974Z,20.35
2023-05-24T12:32:11.944Z,20.14
2023-05-24T12:34:45.514Z,18.97
2023-05-24T12:37:13.689Z,18.93
2023-05-24T12:39:43.356Z,19.93
2023-05-24T12:42:15.428Z,21.45
2023-05-24T12:44:42.568Z,21.69
2023-05-24T12:47:09.914Z,20.16
2023-05-24T12:49:37.118Z,19.32
2023-05-24T12:52:04.689Z,19.59
2023-05-24T12:54:32.276Z,21.32
2023-05-24T12:57:09.314Z,20.23
2023-05-24T12:59:37.530Z,20.92
2023-05-24T13:02:04.762Z,20.87
2023-05-24T13:04:33.893Z,21.17
2023-05-24T13:07:03.055Z,20.80
2023-05-24T13:09:30.240Z,22.26
2023-05-24T13:11:57.396Z,21.22
2023-05-24T13:14:27.739Z,20.34
2023-05-24T13:16:55.050Z,20.46
2023-05-24T13:19:22.517Z,21.96
2023-05-24T13:21:49.680Z,21.61
2023-05-24T13:24:17.345Z,20.73
2023-05-24T13:26:45.215Z,20.65
2023-05-24T13:31:45.106Z,20.65
2023-05-24T13:34:12.565Z,20.72
2023-05-24T13:36:40.019Z,22.80
2023-05-24T13:41:40.301Z,22.85
2023-05-24T13:44:07.962Z,21.69
2023-05-24T13:46:36.722Z,21.49
2023-05-24T13:49:04.529Z,20.68
2023-05-24T13:51:31.864Z,21.20
2023-05-24T13:53:59.733Z,20.97
2023-05-24T13:56:32.869Z,20.65
2023-05-24T13:59:03.766Z,20.60
2023-05-24T14:01:31.993Z,20.56
2023-05-24T14:04:01.022Z,20.32
2023-05-24T14:06:28.339Z,20.79
2023-05-24T14:08:55.703Z,21.33
2023-05-24T14:11:24.822Z,22.15
2023-05-24T14:16:22.823Z,22.68
2023-05-24T14:18:51.706Z,22.93
2023-05-24T14:21:19.725Z,23.64
2023-05-24T14:23:48.317Z,23.08
2023-05-24T14:26:15.461Z,23.23
2023-05-24T14:28:42.611Z,23.59
2023-05-24T14:31:09.730Z,23.28
2023-05-24T14:33:38.540Z,23.64
2023-05-24T14:36:06.605Z,23.87
2023-05-24T14:38:33.743Z,23.14
2023-05-24T14:41:01.724Z,23.05
2023-05-24T14:43:28.781Z,23.12
2023-05-24T14:45:56.631Z,23.74
2023-05-24T14:48:23.697Z,24.47
2023-05-24T14:50:50.898Z,23.71
2023-05-24T14:53:18.631Z,22.74
2023-05-24T14:55:46.128Z,23.11
2023-05-24T14:58:13.473Z,23.27
2023-05-24T15:00:41.514Z,23.43
2023-05-24T15:03:09.291Z,23.22
2023-05-24T15:05:39.291Z,24.17
2023-05-24T15:08:08.057Z,23.39
2023-05-24T15:10:35.317Z,23.77
2023-05-24T15:13:03.967Z,23.82
2023-05-24T15:15:31.577Z,24.83
2023-05-24T15:18:00.105Z,25.08
2023-05-24T15:20:27.417Z,24.66
2023-05-24T15:22:54.883Z,25.33
2023-05-24T15:25:22.451Z,25.63
2023-05-24T15:27:49.713Z,24.72
2023-05-24T15:30:19.225Z,25.00
2023-05-24T15:32:46.828Z,24.72
2023-05-24T15:35:14.572Z,25.33
2023-05-24T15:37:42.779Z,26.18
2023-05-24T15:40:10.642Z,29.23
2023-05-24T15:42:37.997Z,30.31
2023-05-24T15:45:05.726Z,31.27
2023-05-24T15:47:38.116Z,31.90
2023-05-24T15:50:07.082Z,32.29
2023-05-24T15:52:35.006Z,32.76
2023-05-24T15:55:02.186Z,33.04
2023-05-24T15:57:29.417Z,33.54
2023-05-24T15:59:56.641Z,33.82
2023-05-24T16:02:24.276Z,34.71
2023-05-24T16:04:51.681Z,34.92
2023-05-24T16:07:19.662Z,35.24
2023-05-24T16:09:47.065Z,35.41
2023-05-24T16:12:14.298Z,35.51
2023-05-24T16:14:41.981Z,35.26
2023-05-24T16:17:09.091Z,35.21
2023-05-24T16:19:36.535Z,35.38
2023-05-24T16:22:04.578Z,35.79
2023-05-24T16:24:31.758Z,36.47
2023-05-24T16:26:59.256Z,36.91
2023-05-24T16:29:26.776Z,37.10
2023-05-24T16:31:53.892Z,37.55
2023-05-24T16:34:23.829Z,38.09
2023-05-24T16:36:51.378Z,38.40
2023-05-24T16:39:18.515Z,38.68
2023-05-24T16:41:46.829Z,38.40
2023-05-24T16:44:18.142Z,38.88
2023-05-24T16:46:45.728Z,39.08
2023-05-24T16:49:13.317Z,39.31
2023-05-24T16:51:40.652Z,39.24
2023-05-24T16:54:09.500Z,39.52
2023-05-24T16:56:37.826Z,39.85
2023-05-24T16:59:05.081Z,40.28
2023-05-24T17:01:32.647Z,40.39
2023-05-24T17:03:59.988Z,40.81
2023-05-24T17:06:27.821Z,40.81
2023-05-24T17:08:55.262Z,40.60
2023-05-24T17:11:23.332Z,40.80
2023-05-24T17:13:51.847Z,41.03
2023-05-24T17:16:19.253Z,41.43
2023-05-24T17:18:46.657Z,41.72
2023-05-24T17:21:13.838Z,42.55
2023-05-24T17:23:41.011Z,41.80
2023-05-24T17:26:08.318Z,42.24
2023-05-24T17:28:36.475Z,42.58
2023-05-24T17:31:04.040Z,42.46
2023-05-24T17:33:32.477Z,43.38
2023-05-24T17:36:09.768Z,43.44
2023-05-24T17:38:37.892Z,43.53
2023-05-24T17:41:07.991Z,43.93
2023-05-24T17:43:36.870Z,44.76
2023-05-24T17:46:07.025Z,44.94
2023-05-24T17:48:39.145Z,45.33
2023-05-24T17:51:07.766Z,45.32
2023-05-24T17:53:35.542Z,46.21
2023-05-24T17:56:02.854Z,46.11
2023-05-24T17:58:36.965Z,46.52
2023-05-24T18:01:05.538Z,46.96
2023-05-24T18:03:37.415Z,47.10
2023-05-24T18:06:06.870Z,46.84
2023-05-24T18:08:36.249Z,47.45
2023-05-24T18:11:08.470Z,47.32
2023-05-24T18:13:37.183Z,48.15
2023-05-24T18:16:04.230Z,48.25
2023-05-24T18:18:31.407Z,48.39
2023-05-24T18:20:58.724Z,48.57
2023-05-24T18:23:26.087Z,48.84
2023-05-24T18:26:01.804Z,49.01
2023-05-24T18:28:30.644Z,49.31
2023-05-24T18:30:57.951Z,49.40
2023-05-24T18:33:25.323Z,49.41
2023-05-24T18:35:52.654Z,49.62
2023-05-24T18:38:19.851Z,49.57
2023-05-24T18:40:47.098Z,50.11
2023-05-24T18:43:14.359Z,50.20
2023-05-24T18:45:41.888Z,50.28
2023-05-24T18:48:09.228Z,50.78
2023-05-24T18:50:37.120Z,50.86
2023-05-24T18:53:04.245Z,51.35
2023-05-24T18:55:31.531Z,51.39
2023-05-24T18:57:58.709Z,51.33
2023-05-24T19:00:26.363Z,51.23
2023-05-24T19:02:55.557Z,51.32
2023-05-24T19:05:22.955Z,51.37
2023-05-24T19:07:50.498Z,51.84
2023-05-24T19:10:17.952Z,52.06
2023-05-24T19:12:45.355Z,51.75
2023-05-24T19:15:12.703Z,52.22
2023-05-24T19:17:40.541Z,52.20
2023-05-24T19:20:08.363Z,52.70
2023-05-24T19:22:35.682Z,53.04
2023-05-24T19:25:03.445Z,52.91
2023-05-24T19:27:31.103Z,53.34
2023-05-24T19:30:00.275Z,53.37
2023-05-24T19:32:27.818Z,53.74
2023-05-24T19:34:55.228Z,53.84
2023-05-24T19:37:22.408Z,53.95
2023-05-24T19:39:49.635Z,54.31
2023-05-24T19:42:16.968Z,54.35
2023-05-24T19:44:44.212Z,54.74
2023-05-24T19:47:11.817Z,53.92
2023-05-24T19:49:38.940Z,54.58
2023-05-24T19:52:06.202Z,55.11
2023-05-24T19:54:34.269Z,55.35
2023-05-24T19:57:02.065Z,55.58
2023-05-24T19:59:29.770Z,55.48
2023-05-24T20:01:57.089Z,53.84
2023-05-24T20:04:24.553Z,53.07
2023-05-24T20:06:52.895Z,53.18
2023-05-24T20:09:20.017Z,53.57
2023-05-24T20:11:47.103Z,53.96
2023-05-24T20:14:14.331Z,54.44
2023-05-24T20:16:42.107Z,54.64
2023-05-24T20:19:09.132Z,55.11
2023-05-24T20:21:39.502Z,55.22
2023-05-24T20:24:06.773Z,55.66
2023-05-24T20:26:35.300Z,55.80
2023-05-24T20:29:02.384Z,56.16
2023-05-24T20:31:30.026Z,56.82
2023-05-24T20:33:58.060Z,56.59
2023-05-24T20:36:25.150Z,55.11
2023-05-24T20:38:52.280Z,54.39
2023-05-24T20:41:19.532Z,54.58
2023-05-24T20:43:47.127Z,54.83
2023-05-24T20:46:14.555Z,55.08
2023-05-24T20:48:43.382Z,54.97
2023-05-24T20:51:10.660Z,55.40
2023-05-24T20:53:38.129Z,56.27
2023-05-24T20:56:05.376Z,56.51
2023-05-24T20:58:34.690Z,56.87
2023-05-24T21:01:01.859Z,57.05
2023-05-24T21:03:30.075Z,57.64
2023-05-24T21:05:57.390Z,57.49
2023-05-24T21:08:24.426Z,55.94
2023-05-24T21:10:51.881Z,55.25
2023-05-24T21:13:20.546Z,55.42
2023-05-24T21:15:47.843Z,55.71
2023-05-24T21:18:15.504Z,56.23
2023-05-24T21:20:42.754Z,56.69
2023-05-24T21:23:10.609Z,56.99
2023-05-24T21:25:37.671Z,57.59
2023-05-24T21:28:04.906Z,57.93
2023-05-24T21:30:32.631Z,58.36
2023-05-24T21:33:00.295Z,58.06
2023-05-24T21:35:28.581Z,56.48
2023-05-24T21:37:56.192Z,55.57
2023-05-24T21:40:23.769Z,55.79
2023-05-24T21:42:51.260Z,56.30
2023-05-24T21:45:18.249Z,56.49
2023-05-24T21:47:45.680Z,57.01
2023-05-24T21:50:12.816Z,57.74
2023-05-24T21:52:40.965Z,57.94
2023-05-24T21:55:08.356Z,58.85
2023-05-24T21:57:36.006Z,58.74
2023-05-24T22:00:04.402Z,57.25
2023-05-24T22:02:34.591Z,56.69
2023-05-24T22:05:01.971Z,56.67
2023-05-24T22:07:29.372Z,56.74
2023-05-24T22:09:56.715Z,57.16
2023-05-24T22:12:23.980Z,57.66
2023-05-24T22:14:51.302Z,58.26
2023-05-24T22:17:19.346Z,58.55
2023-05-24T22:19:48.118Z,58.64
2023-05-24T22:22:19.589Z,58.08
2023-05-24T22:24:47.361Z,56.78
2023-05-24T22:27:14.810Z,56.27
2023-05-24T22:29:41.868Z,56.40
2023-05-24T22:32:09.359Z,56.70
2023-05-24T22:34:36.959Z,57.32
2023-05-24T22:37:04.462Z,57.78
2023-05-24T22:39:31.765Z,58.30
2023-05-24T22:41:58.930Z,58.78
2023-05-24T22:44:26.524Z,59.69
2023-05-24T22:46:54.125Z,59.42
2023-05-24T22:49:21.595Z,57.79
2023-05-24T22:51:50.645Z,57.03
2023-05-24T22:54:17.811Z,57.04
2023-05-24T22:56:44.989Z,57.49
2023-05-24T22:59:12.653Z,58.06
2023-05-24T23:01:39.770Z,58.63
2023-05-24T23:06:39.146Z,59.79
2023-05-24T23:09:06.564Z,59.68
2023-05-24T23:11:35.529Z,57.96
2023-05-24T23:14:02.934Z,57.58
2023-05-24T23:16:31.934Z,57.71
2023-05-24T23:18:59.091Z,58.17
2023-05-24T23:21:26.827Z,58.81
2023-05-24T23:23:56.985Z,59.18
2023-05-24T23:26:23.978Z,59.63
2023-05-24T23:28:51.148Z,60.09
2023-05-24T23:31:18.808Z,59.88
2023-05-24T23:33:46.137Z,58.63
2023-05-24T23:36:13.415Z,58.28
2023-05-24T23:38:41.171Z,58.52
2023-05-24T23:41:08.544Z,58.67
2023-05-24T23:43:37.308Z,59.43
2023-05-24T23:46:04.445Z,60.14
2023-05-24T23:48:31.513Z,60.87
2023-05-24T23:50:58.763Z,60.62
2023-05-24T23:53:26.058Z,59.15
2023-05-24T23:55:53.456Z,58.64
2023-05-24T23:58:20.883Z,58.53
